Terminal Aerodrome Forecast
Issued by NWS

Current Version | Previous Version | Text Only | Print | Product List | Glossary On
Versions: 1 2 3 4 5 6 7 8 9 10 11 12 13 14 15 16 17 18 19 20 21 22 23 24 25 26 27 28 29 30 31 32 33 34
000
FTUS41 KBOX 281127
TAFHYA
TAF
KHYA 281127Z 2812/2912 17011KT 3/4SM -SHRA BR OVC003
     FM281400 18013G20KT 5SM BR OVC008
     FM282100 21014G25KT P6SM BKN015
     FM290000 22016KT P6SM SCT250
     FM290200 23015G22KT 3SM BR SCT250
     FM290600 25012G20KT P6SM SCT050=

USA.gov is the U.S. government's official web portal to all federal, state and local government web resources and services.